sensor_id;sensor_type;location;lat;lon;timestamp;temperature;humidity
23120;DHT22;11729;50.836;4.330;2023-02-03T00:01:31;11.10;99.90
23120;DHT22;11729;50.836;4.330;2023-02-03T00:03:57;11.20;99.90
23120;DHT22;11729;50.836;4.330;2023-02-03T00:06:23;11.20;99.90
23120;DHT22;11729;50.836;4.330;2023-02-03T00:08:53;11.10;99.90
23120;DHT22;11729;50.836;4.330;2023-02-03T00:11:19;11.10;99.90
23120;DHT22;11729;50.836;4.330;2023-02-03T00:13:45;11.20;99.90
23120;DHT22;11729;50.836;4.330;2023-02-03T00:16:11;11.20;99.90
23120;DHT22;11729;50.836;4.330;2023-02-03T00:18:38;11.20;99.90
23120;DHT22;11729;50.836;4.330;2023-02-03T00:21:04;11.20;99.90
23120;DHT22;11729;50.836;4.330;2023-02-03T00:23:30;11.30;99.90
23120;DHT22;11729;50.836;4.330;2023-02-03T00:26:16;11.30;99.90
23120;DHT22;11729;50.836;4.330;2023-02-03T00:28:42;11.20;99.90
23120;DHT22;11729;50.836;4.330;2023-02-03T00:31:26;11.30;99.90
23120;DHT22;11729;50.836;4.330;2023-02-03T00:33:56;11.20;99.90
23120;DHT22;11729;50.836;4.330;2023-02-03T00:36:24;11.20;99.90
23120;DHT22;11729;50.836;4.330;2023-02-03T00:38:50;11.30;99.90
23120;DHT22;11729;50.836;4.330;2023-02-03T00:41:16;11.10;99.90
23120;DHT22;11729;50.836;4.330;2023-02-03T00:43:42;11.10;99.90
23120;DHT22;11729;50.836;4.330;2023-02-03T00:46:08;11.10;99.90
23120;DHT22;11729;50.836;4.330;2023-02-03T00:48:34;11.20;99.90
23120;DHT22;11729;50.836;4.330;2023-02-03T00:50:59;11.10;99.90
23120;DHT22;11729;50.836;4.330;2023-02-03T00:53:25;11.10;99.90
23120;DHT22;11729;50.836;4.330;2023-02-03T00:55:50;11.10;99.90
23120;DHT22;11729;50.836;4.330;2023-02-03T00:58:16;10.90;99.90
23120;DHT22;11729;50.836;4.330;2023-02-03T01:00:42;10.90;99.90
23120;DHT22;11729;50.836;4.330;2023-02-03T01:03:07;11.00;99.90
23120;DHT22;11729;50.836;4.330;2023-02-03T01:05:34;11.10;99.90
23120;DHT22;11729;50.836;4.330;2023-02-03T01:08:00;11.10;99.90
23120;DHT22;11729;50.836;4.330;2023-02-03T01:10:27;11.30;99.90
23120;DHT22;11729;50.836;4.330;2023-02-03T01:12:53;11.20;99.90
23120;DHT22;11729;50.836;4.330;2023-02-03T01:15:18;11.20;99.90
23120;DHT22;11729;50.836;4.330;2023-02-03T01:17:44;11.20;99.90
23120;DHT22;11729;50.836;4.330;2023-02-03T01:20:10;11.20;99.90
23120;DHT22;11729;50.836;4.330;2023-02-03T01:22:38;11.30;99.90
23120;DHT22;11729;50.836;4.330;2023-02-03T01:25:04;11.40;99.90
23120;DHT22;11729;50.836;4.330;2023-02-03T01:27:31;11.20;99.90
23120;DHT22;11729;50.836;4.330;2023-02-03T01:29:57;11.20;99.90
23120;DHT22;11729;50.836;4.330;2023-02-03T01:32:24;11.10;99.90
23120;DHT22;11729;50.836;4.330;2023-02-03T01:34:49;11.30;99.90
23120;DHT22;11729;50.836;4.330;2023-02-03T01:37:15;11.20;99.90
23120;DHT22;11729;50.836;4.330;2023-02-03T01:39:42;11.10;99.90
23120;DHT22;11729;50.836;4.330;2023-02-03T01:42:11;11.20;99.90
23120;DHT22;11729;50.836;4.330;2023-02-03T01:44:41;11.00;99.90
23120;DHT22;11729;50.836;4.330;2023-02-03T01:47:32;11.10;99.90
23120;DHT22;11729;50.836;4.330;2023-02-03T01:50:12;11.20;99.90
23120;DHT22;11729;50.836;4.330;2023-02-03T01:52:41;11.30;99.90
23120;DHT22;11729;50.836;4.330;2023-02-03T01:55:12;11.30;99.90
23120;DHT22;11729;50.836;4.330;2023-02-03T01:57:52;11.30;99.90
23120;DHT22;11729;50.836;4.330;2023-02-03T02:00:19;11.30;99.90
23120;DHT22;11729;50.836;4.330;2023-02-03T02:02:46;11.20;99.90
23120;DHT22;11729;50.836;4.330;2023-02-03T02:07:42;11.20;99.90
23120;DHT22;11729;50.836;4.330;2023-02-03T02:10:09;11.20;99.90
23120;DHT22;11729;50.836;4.330;2023-02-03T02:12:35;11.40;99.90
23120;DHT22;11729;50.836;4.330;2023-02-03T02:15:01;11.20;99.90
23120;DHT22;11729;50.836;4.330;2023-02-03T02:17:53;11.10;99.90
23120;DHT22;11729;50.836;4.330;2023-02-03T02:20:53;11.10;99.90
23120;DHT22;11729;50.836;4.330;2023-02-03T02:32:04;11.40;99.90
23120;DHT22;11729;50.836;4.330;2023-02-03T02:42:45;11.40;99.90
23120;DHT22;11729;50.836;4.330;2023-02-03T02:45:23;11.20;99.90
23120;DHT22;11729;50.836;4.330;2023-02-03T02:47:54;11.20;99.90
23120;DHT22;11729;50.836;4.330;2023-02-03T02:50:27;11.30;99.90
23120;DHT22;11729;50.836;4.330;2023-02-03T02:52:56;11.30;99.90
23120;DHT22;11729;50.836;4.330;2023-02-03T02:55:26;11.20;99.90
23120;DHT22;11729;50.836;4.330;2023-02-03T02:57:55;11.20;99.90
23120;DHT22;11729;50.836;4.330;2023-02-03T03:00:22;11.20;99.90
23120;DHT22;11729;50.836;4.330;2023-02-03T03:02:48;11.20;99.90
23120;DHT22;11729;50.836;4.330;2023-02-03T03:05:16;11.10;99.90
23120;DHT22;11729;50.836;4.330;2023-02-03T03:07:54;11.20;99.90
23120;DHT22;11729;50.836;4.330;2023-02-03T03:10:23;11.20;99.90
23120;DHT22;11729;50.836;4.330;2023-02-03T03:12:58;11.20;99.90
23120;DHT22;11729;50.836;4.330;2023-02-03T03:15:28;11.00;99.90
23120;DHT22;11729;50.836;4.330;2023-02-03T03:18:00;11.00;99.90
23120;DHT22;11729;50.836;4.330;2023-02-03T03:20:27;10.90;99.90
23120;DHT22;11729;50.836;4.330;2023-02-03T03:23:00;11.20;99.90
23120;DHT22;11729;50.836;4.330;2023-02-03T03:25:33;11.10;99.90
23120;DHT22;11729;50.836;4.330;2023-02-03T03:28:03;11.20;99.90
23120;DHT22;11729;50.836;4.330;2023-02-03T03:30:35;11.20;99.90
23120;DHT22;11729;50.836;4.330;2023-02-03T03:33:02;11.20;99.90
23120;DHT22;11729;50.836;4.330;2023-02-03T03:35:36;11.10;99.90
23120;DHT22;11729;50.836;4.330;2023-02-03T03:38:24;11.10;99.90
23120;DHT22;11729;50.836;4.330;2023-02-03T03:41:10;11.20;99.90
23120;DHT22;11729;50.836;4.330;2023-02-03T03:43:39;11.30;99.90
23120;DHT22;11729;50.836;4.330;2023-02-03T03:46:13;11.30;99.90
23120;DHT22;11729;50.836;4.330;2023-02-03T03:48:44;11.30;99.90
23120;DHT22;11729;50.836;4.330;2023-02-03T03:51:27;11.30;99.90
23120;DHT22;11729;50.836;4.330;2023-02-03T03:53:58;11.60;99.90
23120;DHT22;11729;50.836;4.330;2023-02-03T03:56:39;11.50;99.90
23120;DHT22;11729;50.836;4.330;2023-02-03T03:59:09;11.60;99.90
23120;DHT22;11729;50.836;4.330;2023-02-03T04:01:37;11.50;99.90
23120;DHT22;11729;50.836;4.330;2023-02-03T04:04:06;11.40;99.90
23120;DHT22;11729;50.836;4.330;2023-02-03T04:06:34;11.40;99.90
23120;DHT22;11729;50.836;4.330;2023-02-03T04:09:00;11.40;99.90
23120;DHT22;11729;50.836;4.330;2023-02-03T04:11:26;11.30;99.90
23120;DHT22;11729;50.836;4.330;2023-02-03T04:14:10;11.40;99.90
23120;DHT22;11729;50.836;4.330;2023-02-03T04:16:36;11.30;99.90
23120;DHT22;11729;50.836;4.330;2023-02-03T04:19:02;11.30;99.90
23120;DHT22;11729;50.836;4.330;2023-02-03T04:21:27;11.30;99.90
23120;DHT22;11729;50.836;4.330;2023-02-03T04:23:53;11.30;99.90
23120;DHT22;11729;50.836;4.330;2023-02-03T04:26:21;11.40;99.90
23120;DHT22;11729;50.836;4.330;2023-02-03T04:28:46;11.30;99.90
23120;DHT22;11729;50.836;4.330;2023-02-03T04:31:12;11.30;99.90
23120;DHT22;11729;50.836;4.330;2023-02-03T04:33:37;11.30;99.90
23120;DHT22;11729;50.836;4.330;2023-02-03T04:36:03;11.20;99.90
23120;DHT22;11729;50.836;4.330;2023-02-03T04:38:29;11.30;99.90
23120;DHT22;11729;50.836;4.330;2023-02-03T04:40:54;11.20;99.90
23120;DHT22;11729;50.836;4.330;2023-02-03T04:43:20;11.30;99.90
23120;DHT22;11729;50.836;4.330;2023-02-03T04:45:45;11.20;99.90
23120;DHT22;11729;50.836;4.330;2023-02-03T04:48:11;11.30;99.90
23120;DHT22;11729;50.836;4.330;2023-02-03T04:50:37;11.20;99.90
23120;DHT22;11729;50.836;4.330;2023-02-03T04:53:02;11.40;99.90
23120;DHT22;11729;50.836;4.330;2023-02-03T04:55:28;11.40;99.90
23120;DHT22;11729;50.836;4.330;2023-02-03T04:57:57;11.30;99.90
23120;DHT22;11729;50.836;4.330;2023-02-03T05:00:23;11.30;99.90
23120;DHT22;11729;50.836;4.330;2023-02-03T05:02:49;11.30;99.90
23120;DHT22;11729;50.836;4.330;2023-02-03T05:05:15;11.30;99.90
23120;DHT22;11729;50.836;4.330;2023-02-03T05:07:41;11.20;99.90
23120;DHT22;11729;50.836;4.330;2023-02-03T05:10:07;11.30;99.90
23120;DHT22;11729;50.836;4.330;2023-02-03T05:12:32;11.10;99.90
23120;DHT22;11729;50.836;4.330;2023-02-03T05:14:58;11.10;99.90
23120;DHT22;11729;50.836;4.330;2023-02-03T05:17:23;11.10;99.90
23120;DHT22;11729;50.836;4.330;2023-02-03T05:19:49;11.10;99.90
23120;DHT22;11729;50.836;4.330;2023-02-03T05:22:15;11.10;99.90
23120;DHT22;11729;50.836;4.330;2023-02-03T05:24:41;11.30;99.90
23120;DHT22;11729;50.836;4.330;2023-02-03T05:27:06;11.30;99.90
23120;DHT22;11729;50.836;4.330;2023-02-03T05:29:32;11.30;99.90
23120;DHT22;11729;50.836;4.330;2023-02-03T05:31:57;11.20;99.90
23120;DHT22;11729;50.836;4.330;2023-02-03T05:34:23;11.10;99.90
23120;DHT22;11729;50.836;4.330;2023-02-03T05:36:50;11.20;99.90
23120;DHT22;11729;50.836;4.330;2023-02-03T05:39:15;11.40;99.90
23120;DHT22;11729;50.836;4.330;2023-02-03T05:41:41;11.30;99.90
23120;DHT22;11729;50.836;4.330;2023-02-03T05:44:23;11.30;99.90
23120;DHT22;11729;50.836;4.330;2023-02-03T05:46:50;11.30;99.90
23120;DHT22;11729;50.836;4.330;2023-02-03T05:49:16;11.40;99.90
23120;DHT22;11729;50.836;4.330;2023-02-03T05:51:43;11.30;99.90
23120;DHT22;11729;50.836;4.330;2023-02-03T05:54:09;11.30;99.90
23120;DHT22;11729;50.836;4.330;2023-02-03T05:56:35;11.20;99.90
23120;DHT22;11729;50.836;4.330;2023-02-03T05:59:01;11.30;99.90
23120;DHT22;11729;50.836;4.330;2023-02-03T06:01:26;11.20;99.90
23120;DHT22;11729;50.836;4.330;2023-02-03T06:03:53;11.20;99.90
23120;DHT22;11729;50.836;4.330;2023-02-03T06:06:19;11.20;99.90
23120;DHT22;11729;50.836;4.330;2023-02-03T06:08:44;11.40;99.90
23120;DHT22;11729;50.836;4.330;2023-02-03T06:11:10;11.30;99.90
23120;DHT22;11729;50.836;4.330;2023-02-03T06:13:36;11.30;99.90
23120;DHT22;11729;50.836;4.330;2023-02-03T06:16:01;11.20;99.90
23120;DHT22;11729;50.836;4.330;2023-02-03T06:18:27;11.20;99.90
23120;DHT22;11729;50.836;4.330;2023-02-03T06:20:54;11.10;99.90
23120;DHT22;11729;50.836;4.330;2023-02-03T06:23:20;11.20;99.90
23120;DHT22;11729;50.836;4.330;2023-02-03T06:25:49;11.20;99.90
23120;DHT22;11729;50.836;4.330;2023-02-03T06:28:15;11.30;99.90
23120;DHT22;11729;50.836;4.330;2023-02-03T06:30:41;11.30;99.90
23120;DHT22;11729;50.836;4.330;2023-02-03T06:33:07;11.30;99.90
23120;DHT22;11729;50.836;4.330;2023-02-03T06:35:33;11.40;99.90
23120;DHT22;11729;50.836;4.330;2023-02-03T06:37:59;11.30;99.90
23120;DHT22;11729;50.836;4.330;2023-02-03T06:40:25;11.50;99.90
23120;DHT22;11729;50.836;4.330;2023-02-03T06:42:50;11.40;99.90
23120;DHT22;11729;50.836;4.330;2023-02-03T06:45:16;11.30;99.90
23120;DHT22;11729;50.836;4.330;2023-02-03T06:47:43;11.30;99.90
23120;DHT22;11729;50.836;4.330;2023-02-03T06:50:12;11.40;99.90
23120;DHT22;11729;50.836;4.330;2023-02-03T06:52:37;11.30;99.90
23120;DHT22;11729;50.836;4.330;2023-02-03T06:55:04;11.30;99.90
23120;DHT22;11729;50.836;4.330;2023-02-03T06:57:31;11.30;99.90
23120;DHT22;11729;50.836;4.330;2023-02-03T06:59:57;11.20;99.90
23120;DHT22;11729;50.836;4.330;2023-02-03T07:02:23;11.10;99.90
23120;DHT22;11729;50.836;4.330;2023-02-03T07:04:48;11.10;99.90
23120;DHT22;11729;50.836;4.330;2023-02-03T07:07:14;11.20;99.90
23120;DHT22;11729;50.836;4.330;2023-02-03T07:09:40;11.30;99.90
23120;DHT22;11729;50.836;4.330;2023-02-03T07:12:07;11.30;99.90
23120;DHT22;11729;50.836;4.330;2023-02-03T07:14:33;11.30;99.90
23120;DHT22;11729;50.836;4.330;2023-02-03T07:17:04;11.30;99.90
23120;DHT22;11729;50.836;4.330;2023-02-03T07:19:30;11.40;99.90
23120;DHT22;11729;50.836;4.330;2023-02-03T07:21:56;11.30;99.90
23120;DHT22;11729;50.836;4.330;2023-02-03T07:24:22;11.30;99.90
23120;DHT22;11729;50.836;4.330;2023-02-03T07:26:47;11.30;99.90
23120;DHT22;11729;50.836;4.330;2023-02-03T07:29:13;11.20;99.90
23120;DHT22;11729;50.836;4.330;2023-02-03T07:31:38;11.20;99.90
23120;DHT22;11729;50.836;4.330;2023-02-03T07:34:04;11.30;99.90
23120;DHT22;11729;50.836;4.330;2023-02-03T07:36:32;11.40;99.90
23120;DHT22;11729;50.836;4.330;2023-02-03T07:38:59;11.40;99.90
23120;DHT22;11729;50.836;4.330;2023-02-03T07:41:24;11.30;99.90
23120;DHT22;11729;50.836;4.330;2023-02-03T07:43:50;11.30;99.90
23120;DHT22;11729;50.836;4.330;2023-02-03T07:46:16;11.20;99.90
23120;DHT22;11729;50.836;4.330;2023-02-03T07:48:41;11.10;99.90
23120;DHT22;11729;50.836;4.330;2023-02-03T07:51:07;11.20;99.90
23120;DHT22;11729;50.836;4.330;2023-02-03T07:53:33;11.30;99.90
23120;DHT22;11729;50.836;4.330;2023-02-03T07:55:59;11.30;99.90
23120;DHT22;11729;50.836;4.330;2023-02-03T07:58:26;11.40;99.90
23120;DHT22;11729;50.836;4.330;2023-02-03T08:00:51;11.60;99.90
23120;DHT22;11729;50.836;4.330;2023-02-03T08:03:17;11.60;99.90
23120;DHT22;11729;50.836;4.330;2023-02-03T08:05:42;11.70;99.90
23120;DHT22;11729;50.836;4.330;2023-02-03T08:08:08;11.70;99.90
23120;DHT22;11729;50.836;4.330;2023-02-03T08:10:33;11.50;99.90
23120;DHT22;11729;50.836;4.330;2023-02-03T08:12:59;11.60;99.90
23120;DHT22;11729;50.836;4.330;2023-02-03T08:15:25;11.50;99.90
23120;DHT22;11729;50.836;4.330;2023-02-03T08:17:51;11.60;99.90
23120;DHT22;11729;50.836;4.330;2023-02-03T08:20:16;11.70;99.90
23120;DHT22;11729;50.836;4.330;2023-02-03T08:22:42;11.70;99.90
23120;DHT22;11729;50.836;4.330;2023-02-03T08:25:08;11.60;99.90
23120;DHT22;11729;50.836;4.330;2023-02-03T08:27:34;11.60;99.90
23120;DHT22;11729;50.836;4.330;2023-02-03T08:30:00;11.60;99.90
23120;DHT22;11729;50.836;4.330;2023-02-03T08:32:26;11.50;99.90
23120;DHT22;11729;50.836;4.330;2023-02-03T08:34:52;11.50;99.90
23120;DHT22;11729;50.836;4.330;2023-02-03T08:37:21;11.50;99.90
23120;DHT22;11729;50.836;4.330;2023-02-03T08:39:49;11.80;99.90
23120;DHT22;11729;50.836;4.330;2023-02-03T08:42:14;11.80;99.90
23120;DHT22;11729;50.836;4.330;2023-02-03T08:44:40;11.70;99.90
23120;DHT22;11729;50.836;4.330;2023-02-03T08:47:09;11.80;99.90
23120;DHT22;11729;50.836;4.330;2023-02-03T08:49:35;11.80;99.90
23120;DHT22;11729;50.836;4.330;2023-02-03T08:52:04;11.80;99.90
23120;DHT22;11729;50.836;4.330;2023-02-03T08:54:30;12.10;99.90
23120;DHT22;11729;50.836;4.330;2023-02-03T08:56:56;12.00;99.90
23120;DHT22;11729;50.836;4.330;2023-02-03T08:59:22;11.90;99.90
23120;DHT22;11729;50.836;4.330;2023-02-03T09:01:48;12.00;99.90
23120;DHT22;11729;50.836;4.330;2023-02-03T09:04:15;11.90;99.90
23120;DHT22;11729;50.836;4.330;2023-02-03T09:06:45;11.90;99.90
23120;DHT22;11729;50.836;4.330;2023-02-03T09:09:13;12.00;99.90
23120;DHT22;11729;50.836;4.330;2023-02-03T09:11:40;12.20;99.90
23120;DHT22;11729;50.836;4.330;2023-02-03T09:14:06;12.10;99.90
23120;DHT22;11729;50.836;4.330;2023-02-03T09:16:32;11.90;99.90
23120;DHT22;11729;50.836;4.330;2023-02-03T09:18:58;11.90;99.90
23120;DHT22;11729;50.836;4.330;2023-02-03T09:21:23;11.80;99.90
23120;DHT22;11729;50.836;4.330;2023-02-03T09:23:49;11.80;99.90
23120;DHT22;11729;50.836;4.330;2023-02-03T09:26:15;11.80;99.90
23120;DHT22;11729;50.836;4.330;2023-02-03T09:28:41;11.80;99.90
23120;DHT22;11729;50.836;4.330;2023-02-03T09:31:14;11.90;99.90
23120;DHT22;11729;50.836;4.330;2023-02-03T09:33:42;12.00;99.90
23120;DHT22;11729;50.836;4.330;2023-02-03T09:36:09;12.00;99.90
23120;DHT22;11729;50.836;4.330;2023-02-03T09:38:35;11.90;99.90
23120;DHT22;11729;50.836;4.330;2023-02-03T09:46:57;12.20;99.90
23120;DHT22;11729;50.836;4.330;2023-02-03T09:49:28;12.10;99.90
23120;DHT22;11729;50.836;4.330;2023-02-03T09:52:06;12.30;99.90
23120;DHT22;11729;50.836;4.330;2023-02-03T09:56:59;11.90;99.90
23120;DHT22;11729;50.836;4.330;2023-02-03T09:59:32;12.00;99.90
23120;DHT22;11729;50.836;4.330;2023-02-03T10:04:57;12.00;99.90
23120;DHT22;11729;50.836;4.330;2023-02-03T10:07:51;12.10;99.90
23120;DHT22;11729;50.836;4.330;2023-02-03T10:10:37;12.00;99.90
23120;DHT22;11729;50.836;4.330;2023-02-03T10:13:29;12.00;99.90
23120;DHT22;11729;50.836;4.330;2023-02-03T10:18:35;12.10;99.90
23120;DHT22;11729;50.836;4.330;2023-02-03T10:21:18;12.40;99.90
23120;DHT22;11729;50.836;4.330;2023-02-03T10:23:47;12.40;99.90
23120;DHT22;11729;50.836;4.330;2023-02-03T10:26:19;12.40;99.90
23120;DHT22;11729;50.836;4.330;2023-02-03T10:29:03;12.40;99.90
23120;DHT22;11729;50.836;4.330;2023-02-03T10:31:34;12.40;99.90
23120;DHT22;11729;50.836;4.330;2023-02-03T10:34:11;12.50;99.90
23120;DHT22;11729;50.836;4.330;2023-02-03T10:36:53;12.50;99.90
23120;DHT22;11729;50.836;4.330;2023-02-03T10:39:40;12.50;99.90
23120;DHT22;11729;50.836;4.330;2023-02-03T10:42:08;12.60;99.90
23120;DHT22;11729;50.836;4.330;2023-02-03T10:44:42;12.60;99.90
23120;DHT22;11729;50.836;4.330;2023-02-03T10:49:44;12.70;99.90
23120;DHT22;11729;50.836;4.330;2023-02-03T10:52:24;12.70;99.90
23120;DHT22;11729;50.836;4.330;2023-02-03T10:54:50;12.70;99.90
23120;DHT22;11729;50.836;4.330;2023-02-03T10:57:16;12.90;99.90
23120;DHT22;11729;50.836;4.330;2023-02-03T10:59:45;12.80;99.90
23120;DHT22;11729;50.836;4.330;2023-02-03T11:02:24;12.70;99.90
23120;DHT22;11729;50.836;4.330;2023-02-03T11:05:20;12.80;99.90
23120;DHT22;11729;50.836;4.330;2023-02-03T11:07:47;12.80;99.90
23120;DHT22;11729;50.836;4.330;2023-02-03T11:13:17;12.70;99.90
23120;DHT22;11729;50.836;4.330;2023-02-03T11:16:01;12.70;99.90
23120;DHT22;11729;50.836;4.330;2023-02-03T11:21:14;12.60;99.90
23120;DHT22;11729;50.836;4.330;2023-02-03T11:23:50;12.80;99.90
23120;DHT22;11729;50.836;4.330;2023-02-03T11:26:23;12.90;99.90
23120;DHT22;11729;50.836;4.330;2023-02-03T11:28:53;13.00;99.90
23120;DHT22;11729;50.836;4.330;2023-02-03T11:31:32;12.80;99.90
23120;DHT22;11729;50.836;4.330;2023-02-03T11:34:15;12.80;99.90
23120;DHT22;11729;50.836;4.330;2023-02-03T11:36:41;12.80;99.90
23120;DHT22;11729;50.836;4.330;2023-02-03T11:41:52;12.70;99.90
23120;DHT22;11729;50.836;4.330;2023-02-03T11:44:27;12.70;99.90
23120;DHT22;11729;50.836;4.330;2023-02-03T11:47:06;12.70;99.90
23120;DHT22;11729;50.836;4.330;2023-02-03T11:58:07;12.30;99.90
23120;DHT22;11729;50.836;4.330;2023-02-03T12:06:38;12.50;99.90
23120;DHT22;11729;50.836;4.330;2023-02-03T12:09:22;12.70;99.90
23120;DHT22;11729;50.836;4.330;2023-02-03T12:17:33;12.60;99.90
23120;DHT22;11729;50.836;4.330;2023-02-03T12:20:17;12.70;99.90
23120;DHT22;11729;50.836;4.330;2023-02-03T12:25:25;12.60;99.90
23120;DHT22;11729;50.836;4.330;2023-02-03T12:27:59;12.70;99.90
23120;DHT22;11729;50.836;4.330;2023-02-03T12:30:33;12.90;99.90
23120;DHT22;11729;50.836;4.330;2023-02-03T12:33:03;13.00;99.90
23120;DHT22;11729;50.836;4.330;2023-02-03T12:35:38;12.90;99.90
23120;DHT22;11729;50.836;4.330;2023-02-03T12:40:53;12.90;99.90
23120;DHT22;11729;50.836;4.330;2023-02-03T12:46:00;12.80;99.90
23120;DHT22;11729;50.836;4.330;2023-02-03T12:51:18;12.90;99.90
23120;DHT22;11729;50.836;4.330;2023-02-03T12:53:52;13.00;99.90
23120;DHT22;11729;50.836;4.330;2023-02-03T12:56:29;13.10;99.90
23120;DHT22;11729;50.836;4.330;2023-02-03T12:59:02;13.00;99.90
23120;DHT22;11729;50.836;4.330;2023-02-03T13:01:50;13.30;99.90
23120;DHT22;11729;50.836;4.330;2023-02-03T13:04:32;13.30;99.90
23120;DHT22;11729;50.836;4.330;2023-02-03T13:07:27;13.40;99.90
23120;DHT22;11729;50.836;4.330;2023-02-03T13:10:21;13.30;99.90
23120;DHT22;11729;50.836;4.330;2023-02-03T13:12:58;13.30;99.90
23120;DHT22;11729;50.836;4.330;2023-02-03T13:15:30;13.30;99.90
23120;DHT22;11729;50.836;4.330;2023-02-03T13:20:35;13.40;99.90
23120;DHT22;11729;50.836;4.330;2023-02-03T13:23:07;13.40;99.90
23120;DHT22;11729;50.836;4.330;2023-02-03T13:34:02;13.50;99.90
23120;DHT22;11729;50.836;4.330;2023-02-03T13:42:25;13.70;99.90
23120;DHT22;11729;50.836;4.330;2023-02-03T13:45:08;13.50;99.90
23120;DHT22;11729;50.836;4.330;2023-02-03T13:47:34;13.40;99.90
23120;DHT22;11729;50.836;4.330;2023-02-03T13:50:06;13.50;99.90
23120;DHT22;11729;50.836;4.330;2023-02-03T13:52:43;13.30;99.90
23120;DHT22;11729;50.836;4.330;2023-02-03T13:57:53;13.30;99.90
23120;DHT22;11729;50.836;4.330;2023-02-03T14:05:52;13.20;99.90
23120;DHT22;11729;50.836;4.330;2023-02-03T14:19:10;13.40;99.90
23120;DHT22;11729;50.836;4.330;2023-02-03T14:22:00;13.30;99.90
23120;DHT22;11729;50.836;4.330;2023-02-03T14:24:32;13.40;99.90
23120;DHT22;11729;50.836;4.330;2023-02-03T14:26:59;13.50;99.90
23120;DHT22;11729;50.836;4.330;2023-02-03T14:29:28;13.60;99.90
23120;DHT22;11729;50.836;4.330;2023-02-03T14:32:07;13.40;99.90
23120;DHT22;11729;50.836;4.330;2023-02-03T14:34:43;13.50;99.90
23120;DHT22;11729;50.836;4.330;2023-02-03T14:37:22;13.40;99.90
23120;DHT22;11729;50.836;4.330;2023-02-03T14:39:59;13.60;99.90
23120;DHT22;11729;50.836;4.330;2023-02-03T14:45:02;13.30;99.90
23120;DHT22;11729;50.836;4.330;2023-02-03T14:50:35;13.20;99.90
23120;DHT22;11729;50.836;4.330;2023-02-03T14:58:29;13.50;99.90
23120;DHT22;11729;50.836;4.330;2023-02-03T15:00:56;13.40;99.90
23120;DHT22;11729;50.836;4.330;2023-02-03T15:03:24;13.30;99.90
23120;DHT22;11729;50.836;4.330;2023-02-03T15:05:59;13.20;99.90
23120;DHT22;11729;50.836;4.330;2023-02-03T15:08:43;13.30;99.90
23120;DHT22;11729;50.836;4.330;2023-02-03T15:13:47;13.30;99.90
23120;DHT22;11729;50.836;4.330;2023-02-03T15:16:16;13.20;99.90
23120;DHT22;11729;50.836;4.330;2023-02-03T15:18:42;13.30;99.90
23120;DHT22;11729;50.836;4.330;2023-02-03T15:21:19;13.30;99.90
23120;DHT22;11729;50.836;4.330;2023-02-03T15:23:46;13.40;99.90
23120;DHT22;11729;50.836;4.330;2023-02-03T15:26:26;13.30;99.90
23120;DHT22;11729;50.836;4.330;2023-02-03T15:28:55;13.30;99.90
23120;DHT22;11729;50.836;4.330;2023-02-03T15:31:34;13.20;99.90
23120;DHT22;11729;50.836;4.330;2023-02-03T15:34:08;13.20;99.90
23120;DHT22;11729;50.836;4.330;2023-02-03T15:36:41;13.30;99.90
23120;DHT22;11729;50.836;4.330;2023-02-03T15:42:40;13.40;99.90
23120;DHT22;11729;50.836;4.330;2023-02-03T15:47:40;13.20;99.90
23120;DHT22;11729;50.836;4.330;2023-02-03T15:50:41;13.50;99.90
23120;DHT22;11729;50.836;4.330;2023-02-03T15:53:18;13.40;99.90
23120;DHT22;11729;50.836;4.330;2023-02-03T15:55:47;13.40;99.90
23120;DHT22;11729;50.836;4.330;2023-02-03T15:58:43;13.40;99.90
23120;DHT22;11729;50.836;4.330;2023-02-03T16:01:10;13.40;99.90
23120;DHT22;11729;50.836;4.330;2023-02-03T16:03:44;13.30;99.90
23120;DHT22;11729;50.836;4.330;2023-02-03T16:06:29;13.20;99.90
23120;DHT22;11729;50.836;4.330;2023-02-03T16:09:00;13.30;99.90
23120;DHT22;11729;50.836;4.330;2023-02-03T16:11:38;13.40;99.90
23120;DHT22;11729;50.836;4.330;2023-02-03T16:14:05;13.30;99.90
23120;DHT22;11729;50.836;4.330;2023-02-03T16:16:41;13.00;99.90
23120;DHT22;11729;50.836;4.330;2023-02-03T16:19:20;13.00;99.90
23120;DHT22;11729;50.836;4.330;2023-02-03T16:24:35;13.10;99.90
23120;DHT22;11729;50.836;4.330;2023-02-03T16:29:50;12.90;99.90
23120;DHT22;11729;50.836;4.330;2023-02-03T16:32:34;13.00;99.90
23120;DHT22;11729;50.836;4.330;2023-02-03T16:35:19;13.20;99.90
23120;DHT22;11729;50.836;4.330;2023-02-03T16:38:14;13.30;99.90
23120;DHT22;11729;50.836;4.330;2023-02-03T16:40:59;13.30;99.90
23120;DHT22;11729;50.836;4.330;2023-02-03T16:43:43;13.20;99.90
23120;DHT22;11729;50.836;4.330;2023-02-03T16:46:28;13.30;99.90
23120;DHT22;11729;50.836;4.330;2023-02-03T16:49:12;13.20;99.90
23120;DHT22;11729;50.836;4.330;2023-02-03T16:51:56;13.10;99.90
23120;DHT22;11729;50.836;4.330;2023-02-03T16:54:22;13.20;99.90
23120;DHT22;11729;50.836;4.330;2023-02-03T16:56:48;13.20;99.90
23120;DHT22;11729;50.836;4.330;2023-02-03T16:59:15;13.20;99.90
23120;DHT22;11729;50.836;4.330;2023-02-03T17:01:41;13.20;99.90
23120;DHT22;11729;50.836;4.330;2023-02-03T17:04:08;13.20;99.90
23120;DHT22;11729;50.836;4.330;2023-02-03T17:06:38;13.00;99.90
23120;DHT22;11729;50.836;4.330;2023-02-03T17:09:05;13.10;99.90
23120;DHT22;11729;50.836;4.330;2023-02-03T17:11:30;13.00;99.90
23120;DHT22;11729;50.836;4.330;2023-02-03T17:13:56;12.80;99.90
23120;DHT22;11729;50.836;4.330;2023-02-03T17:16:24;12.80;99.90
23120;DHT22;11729;50.836;4.330;2023-02-03T17:18:50;12.70;99.90
23120;DHT22;11729;50.836;4.330;2023-02-03T17:21:26;12.60;99.90
23120;DHT22;11729;50.836;4.330;2023-02-03T17:23:53;12.60;99.90
23120;DHT22;11729;50.836;4.330;2023-02-03T17:26:18;12.70;99.90
23120;DHT22;11729;50.836;4.330;2023-02-03T17:28:45;12.70;99.90
23120;DHT22;11729;50.836;4.330;2023-02-03T17:31:14;12.70;99.90
23120;DHT22;11729;50.836;4.330;2023-02-03T17:33:40;12.70;99.90
23120;DHT22;11729;50.836;4.330;2023-02-03T17:36:15;12.70;99.90
23120;DHT22;11729;50.836;4.330;2023-02-03T17:38:44;12.70;99.90
23120;DHT22;11729;50.836;4.330;2023-02-03T17:41:11;12.60;99.90
23120;DHT22;11729;50.836;4.330;2023-02-03T17:43:38;12.60;99.90
23120;DHT22;11729;50.836;4.330;2023-02-03T17:46:04;12.30;99.90
23120;DHT22;11729;50.836;4.330;2023-02-03T17:48:30;12.30;99.90
23120;DHT22;11729;50.836;4.330;2023-02-03T17:51:23;12.50;99.90
23120;DHT22;11729;50.836;4.330;2023-02-03T17:53:55;12.40;99.90
23120;DHT22;11729;50.836;4.330;2023-02-03T17:56:22;12.30;99.90
23120;DHT22;11729;50.836;4.330;2023-02-03T17:58:57;12.10;99.90
23120;DHT22;11729;50.836;4.330;2023-02-03T18:01:24;12.20;99.90
23120;DHT22;11729;50.836;4.330;2023-02-03T18:03:58;12.10;99.90
23120;DHT22;11729;50.836;4.330;2023-02-03T18:06:27;12.10;99.90